sensor_id;sensor_type;location;lat;lon;timestamp;temperature;humidity
3194;DHT22;1608;50.860;13.466;2022-09-01T00:02:06;15.40;99.90
3194;DHT22;1608;50.860;13.466;2022-09-01T00:04:35;15.40;99.90
3194;DHT22;1608;50.860;13.466;2022-09-01T00:07:05;15.40;99.90
3194;DHT22;1608;50.860;13.466;2022-09-01T00:09:32;15.40;99.90
3194;DHT22;1608;50.860;13.466;2022-09-01T00:12:00;15.40;99.90
3194;DHT22;1608;50.860;13.466;2022-09-01T00:14:30;15.40;99.90
3194;DHT22;1608;50.860;13.466;2022-09-01T00:16:58;15.40;99.90
3194;DHT22;1608;50.860;13.466;2022-09-01T00:19:25;15.40;99.90
3194;DHT22;1608;50.860;13.466;2022-09-01T00:21:53;15.30;99.90
3194;DHT22;1608;50.860;13.466;2022-09-01T00:24:22;15.30;99.90
3194;DHT22;1608;50.860;13.466;2022-09-01T00:26:50;15.30;99.90
3194;DHT22;1608;50.860;13.466;2022-09-01T00:29:17;15.30;99.90
3194;DHT22;1608;50.860;13.466;2022-09-01T00:31:44;15.20;99.90
3194;DHT22;1608;50.860;13.466;2022-09-01T00:34:11;15.20;99.90
3194;DHT22;1608;50.860;13.466;2022-09-01T00:36:38;15.20;99.90
3194;DHT22;1608;50.860;13.466;2022-09-01T00:39:05;15.10;99.90
3194;DHT22;1608;50.860;13.466;2022-09-01T00:41:36;15.10;99.90
3194;DHT22;1608;50.860;13.466;2022-09-01T00:44:05;15.10;99.90
3194;DHT22;1608;50.860;13.466;2022-09-01T00:46:35;15.00;99.90
3194;DHT22;1608;50.860;13.466;2022-09-01T00:49:06;15.00;99.90
3194;DHT22;1608;50.860;13.466;2022-09-01T00:51:37;14.90;99.90
3194;DHT22;1608;50.860;13.466;2022-09-01T00:54:08;14.90;99.90
3194;DHT22;1608;50.860;13.466;2022-09-01T00:56:40;14.90;99.90
3194;DHT22;1608;50.860;13.466;2022-09-01T00:59:08;14.80;99.90
3194;DHT22;1608;50.860;13.466;2022-09-01T01:01:36;14.80;99.90
3194;DHT22;1608;50.860;13.466;2022-09-01T01:04:04;14.80;99.90
3194;DHT22;1608;50.860;13.466;2022-09-01T01:06:31;14.70;99.90
3194;DHT22;1608;50.860;13.466;2022-09-01T01:08:59;14.70;99.90
3194;DHT22;1608;50.860;13.466;2022-09-01T01:11:28;14.70;99.90
3194;DHT22;1608;50.860;13.466;2022-09-01T01:14:00;14.70;99.90
3194;DHT22;1608;50.860;13.466;2022-09-01T01:16:30;14.70;99.90
3194;DHT22;1608;50.860;13.466;2022-09-01T01:18:59;14.60;99.90
3194;DHT22;1608;50.860;13.466;2022-09-01T01:21:33;14.60;99.90
3194;DHT22;1608;50.860;13.466;2022-09-01T01:24:24;14.50;99.90
3194;DHT22;1608;50.860;13.466;2022-09-01T01:26:53;14.50;99.90
3194;DHT22;1608;50.860;13.466;2022-09-01T01:29:21;14.50;99.90
3194;DHT22;1608;50.860;13.466;2022-09-01T01:31:49;14.40;99.90
3194;DHT22;1608;50.860;13.466;2022-09-01T01:34:18;14.40;99.90
3194;DHT22;1608;50.860;13.466;2022-09-01T01:36:45;14.40;99.90
3194;DHT22;1608;50.860;13.466;2022-09-01T01:39:16;14.40;99.90
3194;DHT22;1608;50.860;13.466;2022-09-01T01:41:46;14.40;99.90
3194;DHT22;1608;50.860;13.466;2022-09-01T01:44:17;14.40;99.90
3194;DHT22;1608;50.860;13.466;2022-09-01T01:46:50;14.40;99.90
3194;DHT22;1608;50.860;13.466;2022-09-01T01:49:19;14.30;99.90
3194;DHT22;1608;50.860;13.466;2022-09-01T01:51:48;14.30;99.90
3194;DHT22;1608;50.860;13.466;2022-09-01T01:54:20;14.30;99.90
3194;DHT22;1608;50.860;13.466;2022-09-01T01:56:49;14.30;99.90
3194;DHT22;1608;50.860;13.466;2022-09-01T01:59:16;14.20;99.90
3194;DHT22;1608;50.860;13.466;2022-09-01T02:01:44;14.20;99.90
3194;DHT22;1608;50.860;13.466;2022-09-01T02:04:15;14.20;99.90
3194;DHT22;1608;50.860;13.466;2022-09-01T02:06:45;14.20;99.90
3194;DHT22;1608;50.860;13.466;2022-09-01T02:09:13;14.20;99.90
3194;DHT22;1608;50.860;13.466;2022-09-01T02:11:41;14.10;99.90
3194;DHT22;1608;50.860;13.466;2022-09-01T02:14:09;14.10;99.90
3194;DHT22;1608;50.860;13.466;2022-09-01T02:16:37;14.10;99.90
3194;DHT22;1608;50.860;13.466;2022-09-01T02:19:06;14.00;99.90
3194;DHT22;1608;50.860;13.466;2022-09-01T02:21:35;14.00;99.90
3194;DHT22;1608;50.860;13.466;2022-09-01T02:24:05;13.90;99.90
3194;DHT22;1608;50.860;13.466;2022-09-01T02:26:35;13.90;99.90
3194;DHT22;1608;50.860;13.466;2022-09-01T02:29:08;13.90;99.90
3194;DHT22;1608;50.860;13.466;2022-09-01T02:31:44;13.80;99.90
3194;DHT22;1608;50.860;13.466;2022-09-01T02:34:12;13.80;99.90
3194;DHT22;1608;50.860;13.466;2022-09-01T02:36:39;13.80;99.90
3194;DHT22;1608;50.860;13.466;2022-09-01T02:39:08;13.80;99.90
3194;DHT22;1608;50.860;13.466;2022-09-01T02:41:35;13.80;99.90
3194;DHT22;1608;50.860;13.466;2022-09-01T02:44:02;13.80;99.90
3194;DHT22;1608;50.860;13.466;2022-09-01T02:46:36;13.70;99.90
3194;DHT22;1608;50.860;13.466;2022-09-01T02:49:08;13.70;99.90
3194;DHT22;1608;50.860;13.466;2022-09-01T02:51:40;13.70;99.90
3194;DHT22;1608;50.860;13.466;2022-09-01T02:54:07;13.70;99.90
3194;DHT22;1608;50.860;13.466;2022-09-01T02:56:34;13.60;99.90
3194;DHT22;1608;50.860;13.466;2022-09-01T02:59:01;13.60;99.90
3194;DHT22;1608;50.860;13.466;2022-09-01T03:01:29;13.60;99.90
3194;DHT22;1608;50.860;13.466;2022-09-01T03:03:59;13.60;99.90
3194;DHT22;1608;50.860;13.466;2022-09-01T03:06:28;13.50;99.90
3194;DHT22;1608;50.860;13.466;2022-09-01T03:08:58;13.50;99.90
3194;DHT22;1608;50.860;13.466;2022-09-01T03:11:26;13.50;99.90
3194;DHT22;1608;50.860;13.466;2022-09-01T03:13:54;13.50;99.90
3194;DHT22;1608;50.860;13.466;2022-09-01T03:16:21;13.40;99.90
3194;DHT22;1608;50.860;13.466;2022-09-01T03:18:47;13.40;99.90
3194;DHT22;1608;50.860;13.466;2022-09-01T03:21:15;13.30;99.90
3194;DHT22;1608;50.860;13.466;2022-09-01T03:23:44;13.30;99.90
3194;DHT22;1608;50.860;13.466;2022-09-01T03:26:12;13.30;99.90
3194;DHT22;1608;50.860;13.466;2022-09-01T03:28:40;13.30;99.90
3194;DHT22;1608;50.860;13.466;2022-09-01T03:31:07;13.30;99.90
3194;DHT22;1608;50.860;13.466;2022-09-01T03:33:34;13.20;99.90
3194;DHT22;1608;50.860;13.466;2022-09-01T03:36:02;13.20;99.90
3194;DHT22;1608;50.860;13.466;2022-09-01T03:38:29;13.20;99.90
3194;DHT22;1608;50.860;13.466;2022-09-01T03:41:00;14.50;99.90
3194;DHT22;1608;50.860;13.466;2022-09-01T03:43:27;13.20;99.90
3194;DHT22;1608;50.860;13.466;2022-09-01T03:45:56;13.30;99.90
3194;DHT22;1608;50.860;13.466;2022-09-01T03:48:26;13.20;99.90
3194;DHT22;1608;50.860;13.466;2022-09-01T03:50:55;13.20;99.90
3194;DHT22;1608;50.860;13.466;2022-09-01T03:53:28;13.20;99.90
3194;DHT22;1608;50.860;13.466;2022-09-01T03:55:58;13.20;99.90
3194;DHT22;1608;50.860;13.466;2022-09-01T03:58:26;13.20;99.90
3194;DHT22;1608;50.860;13.466;2022-09-01T04:00:55;13.30;99.90
3194;DHT22;1608;50.860;13.466;2022-09-01T04:03:27;14.00;99.90
3194;DHT22;1608;50.860;13.466;2022-09-01T04:05:54;13.40;99.90
3194;DHT22;1608;50.860;13.466;2022-09-01T04:08:22;13.40;99.90
3194;DHT22;1608;50.860;13.466;2022-09-01T04:10:58;13.50;99.90
3194;DHT22;1608;50.860;13.466;2022-09-01T04:13:29;13.50;99.90
3194;DHT22;1608;50.860;13.466;2022-09-01T04:15:57;13.60;99.90
3194;DHT22;1608;50.860;13.466;2022-09-01T04:18:24;13.60;99.90
3194;DHT22;1608;50.860;13.466;2022-09-01T04:20:51;13.70;99.90
3194;DHT22;1608;50.860;13.466;2022-09-01T04:23:21;13.70;99.90
3194;DHT22;1608;50.860;13.466;2022-09-01T04:25:52;13.70;99.90
3194;DHT22;1608;50.860;13.466;2022-09-01T04:28:22;13.70;99.90
3194;DHT22;1608;50.860;13.466;2022-09-01T04:30:52;13.70;99.90
3194;DHT22;1608;50.860;13.466;2022-09-01T04:33:20;13.70;99.90
3194;DHT22;1608;50.860;13.466;2022-09-01T04:35:48;13.60;99.90
3194;DHT22;1608;50.860;13.466;2022-09-01T04:38:21;13.60;99.90
3194;DHT22;1608;50.860;13.466;2022-09-01T04:40:49;13.70;99.90
3194;DHT22;1608;50.860;13.466;2022-09-01T04:43:16;13.70;99.90
3194;DHT22;1608;50.860;13.466;2022-09-01T04:45:46;13.80;99.90
3194;DHT22;1608;50.860;13.466;2022-09-01T04:48:17;13.90;99.90
3194;DHT22;1608;50.860;13.466;2022-09-01T04:50:45;13.90;99.90
3194;DHT22;1608;50.860;13.466;2022-09-01T04:53:14;13.90;99.90
3194;DHT22;1608;50.860;13.466;2022-09-01T04:55:43;13.90;99.90
3194;DHT22;1608;50.860;13.466;2022-09-01T04:58:12;14.00;99.90
3194;DHT22;1608;50.860;13.466;2022-09-01T05:00:42;14.00;99.90
3194;DHT22;1608;50.860;13.466;2022-09-01T05:03:10;14.10;99.90
3194;DHT22;1608;50.860;13.466;2022-09-01T05:05:39;14.20;99.90
3194;DHT22;1608;50.860;13.466;2022-09-01T05:08:09;14.30;99.90
3194;DHT22;1608;50.860;13.466;2022-09-01T05:10:40;14.40;99.90
3194;DHT22;1608;50.860;13.466;2022-09-01T05:13:08;14.50;99.90
3194;DHT22;1608;50.860;13.466;2022-09-01T05:15:37;14.40;99.90
3194;DHT22;1608;50.860;13.466;2022-09-01T05:18:04;14.40;99.90
3194;DHT22;1608;50.860;13.466;2022-09-01T05:20:37;14.40;99.90
3194;DHT22;1608;50.860;13.466;2022-09-01T05:23:08;14.50;99.90
3194;DHT22;1608;50.860;13.466;2022-09-01T05:25:39;14.70;99.90
3194;DHT22;1608;50.860;13.466;2022-09-01T05:28:07;14.80;99.90
3194;DHT22;1608;50.860;13.466;2022-09-01T05:30:37;14.90;99.90
3194;DHT22;1608;50.860;13.466;2022-09-01T05:33:04;14.90;99.90
3194;DHT22;1608;50.860;13.466;2022-09-01T05:35:38;14.90;99.90
3194;DHT22;1608;50.860;13.466;2022-09-01T05:38:08;15.00;99.90
3194;DHT22;1608;50.860;13.466;2022-09-01T05:40:39;15.10;99.90
3194;DHT22;1608;50.860;13.466;2022-09-01T05:43:07;15.20;99.90
3194;DHT22;1608;50.860;13.466;2022-09-01T05:45:38;15.30;99.90
3194;DHT22;1608;50.860;13.466;2022-09-01T05:48:07;15.40;99.90
3194;DHT22;1608;50.860;13.466;2022-09-01T05:50:34;15.50;99.90
3194;DHT22;1608;50.860;13.466;2022-09-01T05:53:03;15.60;99.90
3194;DHT22;1608;50.860;13.466;2022-09-01T05:58:02;15.80;99.90
3194;DHT22;1608;50.860;13.466;2022-09-01T06:00:29;16.00;99.90
3194;DHT22;1608;50.860;13.466;2022-09-01T06:02:59;16.10;99.90
3194;DHT22;1608;50.860;13.466;2022-09-01T06:05:29;16.10;99.90
3194;DHT22;1608;50.860;13.466;2022-09-01T06:07:56;16.20;99.90
3194;DHT22;1608;50.860;13.466;2022-09-01T06:10:24;16.30;99.90
3194;DHT22;1608;50.860;13.466;2022-09-01T06:12:51;16.40;99.90
3194;DHT22;1608;50.860;13.466;2022-09-01T06:15:18;16.50;99.90
3194;DHT22;1608;50.860;13.466;2022-09-01T06:17:45;16.60;99.90
3194;DHT22;1608;50.860;13.466;2022-09-01T06:20:12;16.70;99.90
3194;DHT22;1608;50.860;13.466;2022-09-01T06:22:42;16.80;99.90
3194;DHT22;1608;50.860;13.466;2022-09-01T06:25:10;17.00;99.90
3194;DHT22;1608;50.860;13.466;2022-09-01T06:27:38;17.20;99.90
3194;DHT22;1608;50.860;13.466;2022-09-01T06:30:06;17.40;99.90
3194;DHT22;1608;50.860;13.466;2022-09-01T06:32:39;17.70;99.90
3194;DHT22;1608;50.860;13.466;2022-09-01T06:35:08;18.00;99.90
3194;DHT22;1608;50.860;13.466;2022-09-01T06:37:36;18.40;99.90
3194;DHT22;1608;50.860;13.466;2022-09-01T06:40:04;18.80;99.90
3194;DHT22;1608;50.860;13.466;2022-09-01T06:42:32;19.20;99.90
3194;DHT22;1608;50.860;13.466;2022-09-01T06:45:01;19.50;99.90
3194;DHT22;1608;50.860;13.466;2022-09-01T06:47:27;19.80;99.90
3194;DHT22;1608;50.860;13.466;2022-09-01T06:49:54;19.80;99.90
3194;DHT22;1608;50.860;13.466;2022-09-01T06:52:23;19.70;99.90
3194;DHT22;1608;50.860;13.466;2022-09-01T06:54:50;20.10;99.90
3194;DHT22;1608;50.860;13.466;2022-09-01T06:57:18;20.60;99.90
3194;DHT22;1608;50.860;13.466;2022-09-01T06:59:47;20.80;99.90
3194;DHT22;1608;50.860;13.466;2022-09-01T07:02:17;21.10;99.90
3194;DHT22;1608;50.860;13.466;2022-09-01T07:04:44;21.50;99.90
3194;DHT22;1608;50.860;13.466;2022-09-01T07:07:11;21.60;99.90
3194;DHT22;1608;50.860;13.466;2022-09-01T07:09:38;21.60;99.90
3194;DHT22;1608;50.860;13.466;2022-09-01T07:12:06;21.80;99.90
3194;DHT22;1608;50.860;13.466;2022-09-01T07:14:34;21.90;99.90
3194;DHT22;1608;50.860;13.466;2022-09-01T07:17:00;22.20;99.90
3194;DHT22;1608;50.860;13.466;2022-09-01T07:19:29;22.60;99.90
3194;DHT22;1608;50.860;13.466;2022-09-01T07:21:57;22.90;99.90
3194;DHT22;1608;50.860;13.466;2022-09-01T07:24:24;22.80;99.90
3194;DHT22;1608;50.860;13.466;2022-09-01T07:26:51;22.20;99.90
3194;DHT22;1608;50.860;13.466;2022-09-01T07:29:18;22.00;99.90
3194;DHT22;1608;50.860;13.466;2022-09-01T07:31:47;22.10;99.90
3194;DHT22;1608;50.860;13.466;2022-09-01T07:34:15;22.20;99.90
3194;DHT22;1608;50.860;13.466;2022-09-01T07:36:43;22.50;99.90
3194;DHT22;1608;50.860;13.466;2022-09-01T07:39:11;22.60;99.90
3194;DHT22;1608;50.860;13.466;2022-09-01T07:41:40;22.80;99.90
3194;DHT22;1608;50.860;13.466;2022-09-01T07:44:08;22.80;99.90
3194;DHT22;1608;50.860;13.466;2022-09-01T07:46:38;22.80;99.90
3194;DHT22;1608;50.860;13.466;2022-09-01T07:49:05;22.70;99.90
3194;DHT22;1608;50.860;13.466;2022-09-01T07:51:32;22.60;99.90
3194;DHT22;1608;50.860;13.466;2022-09-01T07:54:02;22.70;99.90
3194;DHT22;1608;50.860;13.466;2022-09-01T07:56:29;22.90;99.90
3194;DHT22;1608;50.860;13.466;2022-09-01T07:58:56;23.00;99.90
3194;DHT22;1608;50.860;13.466;2022-09-01T08:01:25;22.60;99.70
3194;DHT22;1608;50.860;13.466;2022-09-01T08:03:54;22.40;97.80
3194;DHT22;1608;50.860;13.466;2022-09-01T08:06:24;22.50;96.80
3194;DHT22;1608;50.860;13.466;2022-09-01T08:08:54;22.30;97.00
3194;DHT22;1608;50.860;13.466;2022-09-01T08:11:24;22.20;97.30
3194;DHT22;1608;50.860;13.466;2022-09-01T08:13:54;22.40;98.10
3194;DHT22;1608;50.860;13.466;2022-09-01T08:16:24;22.60;96.20
3194;DHT22;1608;50.860;13.466;2022-09-01T08:18:50;22.50;93.00
3194;DHT22;1608;50.860;13.466;2022-09-01T08:21:19;22.30;91.90
3194;DHT22;1608;50.860;13.466;2022-09-01T08:23:48;22.20;93.10
3194;DHT22;1608;50.860;13.466;2022-09-01T08:26:17;22.20;93.50
3194;DHT22;1608;50.860;13.466;2022-09-01T08:28:46;22.20;93.60
3194;DHT22;1608;50.860;13.466;2022-09-01T08:31:15;22.10;93.50
3194;DHT22;1608;50.860;13.466;2022-09-01T08:33:43;22.10;91.70
3194;DHT22;1608;50.860;13.466;2022-09-01T08:36:13;21.90;91.20
3194;DHT22;1608;50.860;13.466;2022-09-01T08:38:40;21.80;91.80
3194;DHT22;1608;50.860;13.466;2022-09-01T08:41:14;21.70;91.20
3194;DHT22;1608;50.860;13.466;2022-09-01T08:43:51;21.60;91.30
3194;DHT22;1608;50.860;13.466;2022-09-01T08:46:25;21.70;90.90
3194;DHT22;1608;50.860;13.466;2022-09-01T08:48:54;21.60;93.30
3194;DHT22;1608;50.860;13.466;2022-09-01T08:51:28;21.60;91.70
3194;DHT22;1608;50.860;13.466;2022-09-01T08:54:00;21.70;91.60
3194;DHT22;1608;50.860;13.466;2022-09-01T08:56:29;21.90;91.80
3194;DHT22;1608;50.860;13.466;2022-09-01T08:58:58;22.10;91.50
3194;DHT22;1608;50.860;13.466;2022-09-01T09:01:30;22.20;90.30
3194;DHT22;1608;50.860;13.466;2022-09-01T09:04:12;22.10;90.60
3194;DHT22;1608;50.860;13.466;2022-09-01T09:06:52;22.00;87.30
3194;DHT22;1608;50.860;13.466;2022-09-01T09:09:32;21.80;90.10
3194;DHT22;1608;50.860;13.466;2022-09-01T09:17:50;22.10;90.60
3194;DHT22;1608;50.860;13.466;2022-09-01T09:20:24;21.90;89.90
3194;DHT22;1608;50.860;13.466;2022-09-01T09:22:51;21.60;90.30
3194;DHT22;1608;50.860;13.466;2022-09-01T09:25:18;21.70;90.20
3194;DHT22;1608;50.860;13.466;2022-09-01T09:27:47;21.90;89.60
3194;DHT22;1608;50.860;13.466;2022-09-01T09:30:20;21.90;87.10
3194;DHT22;1608;50.860;13.466;2022-09-01T09:32:50;21.90;86.30
3194;DHT22;1608;50.860;13.466;2022-09-01T09:35:25;21.70;85.00
3194;DHT22;1608;50.860;13.466;2022-09-01T09:37:52;21.60;85.60
3194;DHT22;1608;50.860;13.466;2022-09-01T09:40:21;21.50;89.00
3194;DHT22;1608;50.860;13.466;2022-09-01T09:43:04;21.50;82.90
3194;DHT22;1608;50.860;13.466;2022-09-01T09:45:35;21.50;83.00
3194;DHT22;1608;50.860;13.466;2022-09-01T09:48:06;21.40;86.50
3194;DHT22;1608;50.860;13.466;2022-09-01T09:50:34;21.40;83.70
3194;DHT22;1608;50.860;13.466;2022-09-01T09:53:15;21.50;81.80
3194;DHT22;1608;50.860;13.466;2022-09-01T09:55:59;21.70;85.30
3194;DHT22;1608;50.860;13.466;2022-09-01T09:58:33;21.70;86.60
3194;DHT22;1608;50.860;13.466;2022-09-01T10:01:05;21.80;86.60
3194;DHT22;1608;50.860;13.466;2022-09-01T10:03:41;21.90;86.30
3194;DHT22;1608;50.860;13.466;2022-09-01T10:06:13;21.80;85.50
3194;DHT22;1608;50.860;13.466;2022-09-01T10:08:42;21.60;85.80
3194;DHT22;1608;50.860;13.466;2022-09-01T10:11:23;21.30;85.60
3194;DHT22;1608;50.860;13.466;2022-09-01T10:13:51;21.30;82.90
3194;DHT22;1608;50.860;13.466;2022-09-01T10:16:24;21.00;83.70
3194;DHT22;1608;50.860;13.466;2022-09-01T10:18:53;21.10;83.60
3194;DHT22;1608;50.860;13.466;2022-09-01T10:21:27;21.20;82.20
3194;DHT22;1608;50.860;13.466;2022-09-01T10:23:55;21.40;82.10
3194;DHT22;1608;50.860;13.466;2022-09-01T10:26:29;21.20;82.10
3194;DHT22;1608;50.860;13.466;2022-09-01T10:29:00;21.10;81.50
3194;DHT22;1608;50.860;13.466;2022-09-01T10:31:33;20.90;80.10
3194;DHT22;1608;50.860;13.466;2022-09-01T10:34:02;21.00;81.90
3194;DHT22;1608;50.860;13.466;2022-09-01T10:36:29;21.00;80.60
3194;DHT22;1608;50.860;13.466;2022-09-01T10:38:57;21.10;78.60
3194;DHT22;1608;50.860;13.466;2022-09-01T10:41:50;21.10;78.00
3194;DHT22;1608;50.860;13.466;2022-09-01T10:44:21;21.20;82.30
3194;DHT22;1608;50.860;13.466;2022-09-01T10:46:50;21.20;79.80
3194;DHT22;1608;50.860;13.466;2022-09-01T10:49:21;21.40;83.90
3194;DHT22;1608;50.860;13.466;2022-09-01T10:52:09;21.60;86.10
3194;DHT22;1608;50.860;13.466;2022-09-01T10:55:00;21.80;82.80
3194;DHT22;1608;50.860;13.466;2022-09-01T10:57:39;22.00;83.50
3194;DHT22;1608;50.860;13.466;2022-09-01T11:00:45;22.30;82.50
3194;DHT22;1608;50.860;13.466;2022-09-01T11:06:52;22.90;80.70
3194;DHT22;1608;50.860;13.466;2022-09-01T11:09:23;22.90;78.80
3194;DHT22;1608;50.860;13.466;2022-09-01T11:12:09;23.00;75.30
3194;DHT22;1608;50.860;13.466;2022-09-01T11:14:48;23.10;77.50
3194;DHT22;1608;50.860;13.466;2022-09-01T11:17:19;23.10;76.50
3194;DHT22;1608;50.860;13.466;2022-09-01T11:19:54;23.00;76.20
3194;DHT22;1608;50.860;13.466;2022-09-01T11:22:31;22.90;73.30
3194;DHT22;1608;50.860;13.466;2022-09-01T11:25:34;22.50;71.60
3194;DHT22;1608;50.860;13.466;2022-09-01T11:28:05;22.10;78.00
3194;DHT22;1608;50.860;13.466;2022-09-01T11:30:40;21.90;78.40
3194;DHT22;1608;50.860;13.466;2022-09-01T11:33:26;21.70;78.80
3194;DHT22;1608;50.860;13.466;2022-09-01T11:35:59;21.70;75.80
3194;DHT22;1608;50.860;13.466;2022-09-01T11:38:26;21.50;76.00
3194;DHT22;1608;50.860;13.466;2022-09-01T11:40:56;21.50;66.70
3194;DHT22;1608;50.860;13.466;2022-09-01T11:43:24;21.50;64.90
3194;DHT22;1608;50.860;13.466;2022-09-01T11:45:59;21.80;71.60
3194;DHT22;1608;50.860;13.466;2022-09-01T11:48:28;21.70;70.90
3194;DHT22;1608;50.860;13.466;2022-09-01T11:50:57;21.80;73.90
3194;DHT22;1608;50.860;13.466;2022-09-01T11:53:25;21.90;74.20
3194;DHT22;1608;50.860;13.466;2022-09-01T11:55:54;21.90;75.00
3194;DHT22;1608;50.860;13.466;2022-09-01T11:58:32;21.80;73.90
3194;DHT22;1608;50.860;13.466;2022-09-01T12:01:12;22.00;73.00
3194;DHT22;1608;50.860;13.466;2022-09-01T12:03:39;21.90;71.70
3194;DHT22;1608;50.860;13.466;2022-09-01T12:06:09;21.90;73.90
3194;DHT22;1608;50.860;13.466;2022-09-01T12:08:38;22.10;74.00
3194;DHT22;1608;50.860;13.466;2022-09-01T12:11:07;22.10;73.70
3194;DHT22;1608;50.860;13.466;2022-09-01T12:13:37;22.10;71.10
3194;DHT22;1608;50.860;13.466;2022-09-01T12:16:07;22.00;70.10
3194;DHT22;1608;50.860;13.466;2022-09-01T12:18:36;21.70;72.20
3194;DHT22;1608;50.860;13.466;2022-09-01T12:21:06;21.40;72.10
3194;DHT22;1608;50.860;13.466;2022-09-01T12:23:35;21.80;69.90
3194;DHT22;1608;50.860;13.466;2022-09-01T12:26:06;21.50;67.00
3194;DHT22;1608;50.860;13.466;2022-09-01T12:28:35;21.50;68.60
3194;DHT22;1608;50.860;13.466;2022-09-01T12:31:11;21.40;69.30
3194;DHT22;1608;50.860;13.466;2022-09-01T12:33:40;21.30;66.80
3194;DHT22;1608;50.860;13.466;2022-09-01T12:36:29;21.20;66.10
3194;DHT22;1608;50.860;13.466;2022-09-01T12:39:21;21.20;66.60
3194;DHT22;1608;50.860;13.466;2022-09-01T12:42:01;21.40;66.70
3194;DHT22;1608;50.860;13.466;2022-09-01T12:44:31;21.30;64.50
3194;DHT22;1608;50.860;13.466;2022-09-01T12:47:01;21.60;65.90
3194;DHT22;1608;50.860;13.466;2022-09-01T12:49:37;21.50;66.50
3194;DHT22;1608;50.860;13.466;2022-09-01T12:52:11;21.70;65.80
3194;DHT22;1608;50.860;13.466;2022-09-01T12:54:41;21.70;65.90
3194;DHT22;1608;50.860;13.466;2022-09-01T12:57:08;21.70;64.10
3194;DHT22;1608;50.860;13.466;2022-09-01T12:59:35;21.70;66.90
3194;DHT22;1608;50.860;13.466;2022-09-01T13:02:25;21.90;67.70
3194;DHT22;1608;50.860;13.466;2022-09-01T13:04:51;22.10;65.90
3194;DHT22;1608;50.860;13.466;2022-09-01T13:07:18;22.30;63.60
3194;DHT22;1608;50.860;13.466;2022-09-01T13:09:46;22.30;65.50
3194;DHT22;1608;50.860;13.466;2022-09-01T13:12:18;22.50;63.50
3194;DHT22;1608;50.860;13.466;2022-09-01T13:14:46;22.60;62.00
3194;DHT22;1608;50.860;13.466;2022-09-01T13:17:13;22.80;65.30
3194;DHT22;1608;50.860;13.466;2022-09-01T13:19:40;23.00;67.40
3194;DHT22;1608;50.860;13.466;2022-09-01T13:22:07;23.20;63.60
3194;DHT22;1608;50.860;13.466;2022-09-01T13:24:34;23.40;65.70
3194;DHT22;1608;50.860;13.466;2022-09-01T13:27:02;23.40;61.30
3194;DHT22;1608;50.860;13.466;2022-09-01T13:29:29;23.50;61.50
3194;DHT22;1608;50.860;13.466;2022-09-01T13:31:56;23.40;58.90
3194;DHT22;1608;50.860;13.466;2022-09-01T13:34:22;23.30;58.90
3194;DHT22;1608;50.860;13.466;2022-09-01T13:36:49;23.20;67.00
3194;DHT22;1608;50.860;13.466;2022-09-01T13:39:16;23.10;68.40
3194;DHT22;1608;50.860;13.466;2022-09-01T13:41:43;22.80;73.80
3194;DHT22;1608;50.860;13.466;2022-09-01T13:44:12;22.50;74.30
3194;DHT22;1608;50.860;13.466;2022-09-01T13:46:39;21.90;87.80
3194;DHT22;1608;50.860;13.466;2022-09-01T13:49:07;21.90;76.70
3194;DHT22;1608;50.860;13.466;2022-09-01T13:51:34;21.80;78.60
3194;DHT22;1608;50.860;13.466;2022-09-01T13:54:01;21.80;78.60
3194;DHT22;1608;50.860;13.466;2022-09-01T13:56:28;21.50;82.20
3194;DHT22;1608;50.860;13.466;2022-09-01T13:58:55;21.50;80.10
3194;DHT22;1608;50.860;13.466;2022-09-01T14:01:23;21.70;81.00
3194;DHT22;1608;50.860;13.466;2022-09-01T14:03:50;21.70;79.90
3194;DHT22;1608;50.860;13.466;2022-09-01T14:06:17;21.80;78.80
3194;DHT22;1608;50.860;13.466;2022-09-01T14:08:43;21.90;78.30
3194;DHT22;1608;50.860;13.466;2022-09-01T14:11:15;21.90;75.30
3194;DHT22;1608;50.860;13.466;2022-09-01T14:13:42;21.80;72.00
3194;DHT22;1608;50.860;13.466;2022-09-01T14:16:10;21.80;73.20
3194;DHT22;1608;50.860;13.466;2022-09-01T14:18:39;21.70;71.90
3194;DHT22;1608;50.860;13.466;2022-09-01T14:21:10;21.70;73.10
3194;DHT22;1608;50.860;13.466;2022-09-01T14:23:37;21.80;74.20
3194;DHT22;1608;50.860;13.466;2022-09-01T14:26:08;21.70;71.80
3194;DHT22;1608;50.860;13.466;2022-09-01T14:28:36;21.80;71.10
3194;DHT22;1608;50.860;13.466;2022-09-01T14:31:07;21.70;72.20
3194;DHT22;1608;50.860;13.466;2022-09-01T14:33:34;21.60;72.80
3194;DHT22;1608;50.860;13.466;2022-09-01T14:36:04;21.50;72.00
3194;DHT22;1608;50.860;13.466;2022-09-01T14:38:31;21.40;71.80
3194;DHT22;1608;50.860;13.466;2022-09-01T14:40:58;21.30;73.10
3194;DHT22;1608;50.860;13.466;2022-09-01T14:43:25;21.30;72.60
3194;DHT22;1608;50.860;13.466;2022-09-01T14:46:01;21.40;73.00
3194;DHT22;1608;50.860;13.466;2022-09-01T14:48:31;21.40;70.60
3194;DHT22;1608;50.860;13.466;2022-09-01T14:50:58;21.50;71.70
3194;DHT22;1608;50.860;13.466;2022-09-01T14:53:27;21.50;72.70
3194;DHT22;1608;50.860;13.466;2022-09-01T14:55:54;21.50;73.30
3194;DHT22;1608;50.860;13.466;2022-09-01T14:58:21;21.50;75.30
3194;DHT22;1608;50.860;13.466;2022-09-01T15:00:48;21.50;76.30
3194;DHT22;1608;50.860;13.466;2022-09-01T15:03:15;21.50;74.40
3194;DHT22;1608;50.860;13.466;2022-09-01T15:05:42;21.60;75.90
3194;DHT22;1608;50.860;13.466;2022-09-01T15:08:09;21.70;75.60
3194;DHT22;1608;50.860;13.466;2022-09-01T15:10:39;21.80;74.90
3194;DHT22;1608;50.860;13.466;2022-09-01T15:13:05;21.90;75.30
3194;DHT22;1608;50.860;13.466;2022-09-01T15:15:32;21.90;75.00
3194;DHT22;1608;50.860;13.466;2022-09-01T15:18:00;21.90;75.50
3194;DHT22;1608;50.860;13.466;2022-09-01T15:20:27;21.80;77.70
3194;DHT22;1608;50.860;13.466;2022-09-01T15:23:14;21.70;76.70
3194;DHT22;1608;50.860;13.466;2022-09-01T15:25:43;21.50;77.20
3194;DHT22;1608;50.860;13.466;2022-09-01T15:28:10;21.20;77.90
3194;DHT22;1608;50.860;13.466;2022-09-01T15:30:38;20.90;77.70
3194;DHT22;1608;50.860;13.466;2022-09-01T15:33:06;20.60;79.80
3194;DHT22;1608;50.860;13.466;2022-09-01T15:35:33;20.40;80.30
3194;DHT22;1608;50.860;13.466;2022-09-01T15:38:00;20.30;80.20
3194;DHT22;1608;50.860;13.466;2022-09-01T15:40:27;21.80;82.90
3194;DHT22;1608;50.860;13.466;2022-09-01T15:42:56;20.00;81.20
3194;DHT22;1608;50.860;13.466;2022-09-01T15:45:26;19.90;80.90
3194;DHT22;1608;50.860;13.466;2022-09-01T15:47:53;19.90;80.50
3194;DHT22;1608;50.860;13.466;2022-09-01T15:50:22;19.80;78.40
3194;DHT22;1608;50.860;13.466;2022-09-01T15:52:52;19.80;77.90
3194;DHT22;1608;50.860;13.466;2022-09-01T15:55:20;19.80;77.90
3194;DHT22;1608;50.860;13.466;2022-09-01T15:57:48;19.80;76.80
3194;DHT22;1608;50.860;13.466;2022-09-01T16:00:17;19.90;76.90
3194;DHT22;1608;50.860;13.466;2022-09-01T16:02:44;20.00;75.90
3194;DHT22;1608;50.860;13.466;2022-09-01T16:05:11;20.00;76.00
3194;DHT22;1608;50.860;13.466;2022-09-01T16:07:38;20.20;75.20
3194;DHT22;1608;50.860;13.466;2022-09-01T16:10:07;20.10;75.30
3194;DHT22;1608;50.860;13.466;2022-09-01T16:12:38;20.00;75.20
3194;DHT22;1608;50.860;13.466;2022-09-01T16:15:06;20.00;76.00